createdAt,value
2017-12-13T00:01:13.705Z,12.90
2017-12-13T00:03:41.166Z,16.42
2017-12-13T00:06:08.617Z,16.87
2017-12-13T00:08:36.078Z,11.85
2017-12-13T00:11:03.549Z,17.15
2017-12-13T00:13:31.041Z,12.60
2017-12-13T00:15:58.502Z,11.20
2017-12-13T00:18:25.961Z,14.82
2017-12-13T00:20:53.432Z,14.05
2017-12-13T00:23:20.903Z,15.02
2017-12-13T00:25:49.126Z,16.17
2017-12-13T00:28:16.581Z,14.98
2017-12-13T00:30:44.054Z,16.50
2017-12-13T00:33:11.498Z,19.98
2017-12-13T00:35:38.966Z,14.15
2017-12-13T00:38:06.535Z,18.05
2017-12-13T00:40:34.002Z,17.35
2017-12-13T00:43:01.450Z,15.65
2017-12-13T00:45:28.917Z,14.05
2017-12-13T00:47:57.872Z,13.35
2017-12-13T00:50:25.339Z,15.02
2017-12-13T00:52:52.792Z,14.10
2017-12-13T00:55:20.248Z,13.60
2017-12-13T00:57:47.705Z,18.52
2017-12-13T01:00:15.160Z,15.00
2017-12-13T01:02:42.612Z,17.95
2017-12-13T01:05:10.158Z,9.00
2017-12-13T01:07:37.600Z,9.00
2017-12-13T01:10:05.104Z,12.23
2017-12-13T01:12:32.549Z,9.52
2017-12-13T01:15:00.775Z,7.68
2017-12-13T01:17:28.984Z,7.47
2017-12-13T01:19:56.438Z,7.50
2017-12-13T01:22:23.916Z,6.82
2017-12-13T01:24:51.391Z,8.60
2017-12-13T01:27:18.836Z,5.85
2017-12-13T01:29:46.393Z,4.50
2017-12-13T01:32:13.849Z,5.32
2017-12-13T01:34:41.320Z,5.95
2017-12-13T01:37:08.777Z,6.15
2017-12-13T01:39:36.222Z,6.03
2017-12-13T01:42:03.781Z,7.47
2017-12-13T01:44:31.351Z,7.15
2017-12-13T01:46:58.800Z,7.00
2017-12-13T01:49:26.324Z,7.45
2017-12-13T01:51:53.776Z,4.28
2017-12-13T01:54:21.221Z,9.15
2017-12-13T01:56:48.674Z,6.03
2017-12-13T01:59:16.184Z,5.18
2017-12-13T02:01:43.643Z,7.32
2017-12-13T02:04:11.090Z,8.38
2017-12-13T02:06:38.544Z,5.53
2017-12-13T02:09:05.996Z,6.65
2017-12-13T02:11:33.454Z,4.18
2017-12-13T02:14:00.906Z,6.87
2017-12-13T02:16:28.366Z,4.55
2017-12-13T02:18:55.808Z,4.43
2017-12-13T02:21:23.269Z,5.00
2017-12-13T02:26:23.534Z,4.43
2017-12-13T02:28:50.986Z,3.97
2017-12-13T02:31:18.551Z,3.70
2017-12-13T02:33:46.002Z,6.57
2017-12-13T02:36:13.455Z,4.47
2017-12-13T02:38:40.906Z,5.03
2017-12-13T02:41:08.363Z,3.53
2017-12-13T02:43:35.811Z,4.05
2017-12-13T02:46:03.403Z,6.72
2017-12-13T02:48:30.845Z,8.95
2017-12-13T02:50:58.298Z,5.32
2017-12-13T02:53:25.753Z,4.85
2017-12-13T02:55:53.198Z,8.88
2017-12-13T02:58:20.676Z,3.40
2017-12-13T03:00:48.123Z,4.95
2017-12-13T03:03:15.574Z,5.10
2017-12-13T03:05:43.023Z,7.32
2017-12-13T03:08:10.511Z,4.07
2017-12-13T03:10:37.957Z,10.13
2017-12-13T03:13:05.418Z,3.28
2017-12-13T03:15:32.866Z,4.07
2017-12-13T03:18:00.430Z,3.75
2017-12-13T03:20:27.873Z,3.25
2017-12-13T03:22:55.327Z,3.42
2017-12-13T03:25:22.769Z,4.22
2017-12-13T03:27:50.226Z,5.43
2017-12-13T03:30:17.682Z,7.97
2017-12-13T03:32:45.884Z,6.70
2017-12-13T03:35:13.325Z,6.40
2017-12-13T03:37:40.788Z,3.35
2017-12-13T03:40:08.260Z,3.92
2017-12-13T03:42:35.713Z,4.90
2017-12-13T03:45:03.162Z,5.00
2017-12-13T03:47:30.610Z,4.70
2017-12-13T03:49:58.053Z,3.78
2017-12-13T03:52:25.511Z,6.03
2017-12-13T03:54:52.953Z,5.10
2017-12-13T03:57:20.406Z,6.70
2017-12-13T03:59:47.882Z,4.80
2017-12-13T04:02:15.317Z,4.68
2017-12-13T04:04:43.556Z,5.75
2017-12-13T04:07:10.997Z,5.12
2017-12-13T04:09:38.527Z,4.70
2017-12-13T04:12:05.959Z,6.75
2017-12-13T04:14:34.181Z,2.80
2017-12-13T04:17:01.647Z,6.40
2017-12-13T04:19:29.173Z,7.30
2017-12-13T04:21:56.733Z,3.87
2017-12-13T04:24:24.173Z,7.15
2017-12-13T04:26:51.615Z,3.10
2017-12-13T04:29:19.921Z,4.55
2017-12-13T04:31:47.351Z,4.00
2017-12-13T04:34:15.570Z,4.20
2017-12-13T04:36:43.018Z,4.28
2017-12-13T04:39:10.468Z,3.97
2017-12-13T04:41:37.916Z,3.47
2017-12-13T04:44:05.364Z,3.37
2017-12-13T04:46:32.809Z,4.78
2017-12-13T04:49:01.037Z,4.07
2017-12-13T04:51:28.483Z,4.37
2017-12-13T04:53:55.937Z,4.05
2017-12-13T04:56:23.385Z,3.47
2017-12-13T04:58:50.865Z,4.97
2017-12-13T05:01:18.313Z,5.82
2017-12-13T05:03:45.764Z,3.00
2017-12-13T05:06:13.210Z,4.37
2017-12-13T05:08:40.663Z,6.22
2017-12-13T05:11:08.153Z,3.22
2017-12-13T05:13:35.603Z,5.50
2017-12-13T05:16:03.058Z,4.35
2017-12-13T05:18:30.508Z,6.95
2017-12-13T05:20:57.966Z,5.95
2017-12-13T05:23:25.417Z,8.50
2017-12-13T05:25:52.873Z,4.78
2017-12-13T05:28:20.332Z,6.35
2017-12-13T05:30:47.786Z,4.40
2017-12-13T05:33:15.242Z,6.68
2017-12-13T05:35:42.686Z,11.45
2017-12-13T05:38:10.177Z,6.50
2017-12-13T05:40:37.634Z,5.20
2017-12-13T05:43:05.073Z,3.65
2017-12-13T05:45:32.535Z,5.32
2017-12-13T05:48:00.006Z,5.68
2017-12-13T05:50:27.469Z,4.85
2017-12-13T05:52:54.918Z,6.00
2017-12-13T05:55:22.369Z,3.80
2017-12-13T05:57:49.817Z,7.80
2017-12-13T06:00:17.269Z,4.05
2017-12-13T06:02:44.745Z,3.33
2017-12-13T06:05:12.264Z,2.97
2017-12-13T06:07:42.930Z,3.55
2017-12-13T06:10:10.385Z,6.15
2017-12-13T06:12:39.498Z,3.03
2017-12-13T06:15:08.125Z,3.70
2017-12-13T06:17:35.567Z,3.40
2017-12-13T06:20:05.480Z,3.92
2017-12-13T06:22:34.706Z,4.25
2017-12-13T06:25:02.150Z,5.97
2017-12-13T06:27:29.613Z,5.43
2017-12-13T06:29:57.719Z,3.65
2017-12-13T06:32:31.258Z,5.57
2017-12-13T06:35:00.980Z,4.80
2017-12-13T06:37:28.429Z,4.12
2017-12-13T06:39:58.269Z,3.50
2017-12-13T06:42:25.730Z,7.40
2017-12-13T06:44:55.985Z,4.60
2017-12-13T06:47:23.480Z,4.93
2017-12-13T06:49:51.695Z,4.30
2017-12-13T06:52:19.156Z,4.12
2017-12-13T06:54:46.612Z,6.07
2017-12-13T06:57:14.081Z,4.87
2017-12-13T06:59:43.968Z,5.35
2017-12-13T07:02:11.421Z,4.80
2017-12-13T07:04:41.133Z,11.70
2017-12-13T07:07:08.630Z,4.85
2017-12-13T07:09:36.076Z,7.00
2017-12-13T07:12:03.523Z,7.25
2017-12-13T07:14:30.977Z,4.15
2017-12-13T07:16:58.425Z,4.35
2017-12-13T07:19:25.870Z,5.50
2017-12-13T07:21:53.330Z,4.87
2017-12-13T07:24:20.887Z,6.12
2017-12-13T07:26:48.332Z,6.47
2017-12-13T07:29:15.770Z,4.57
2017-12-13T07:31:43.990Z,4.65
2017-12-13T07:34:11.433Z,5.40
2017-12-13T07:36:38.886Z,6.68
2017-12-13T07:39:06.335Z,5.05
2017-12-13T07:41:33.834Z,6.62
2017-12-13T07:44:01.408Z,7.40
2017-12-13T07:46:28.862Z,10.63
2017-12-13T07:48:56.311Z,5.22
2017-12-13T07:51:26.549Z,4.68
2017-12-13T07:53:54.006Z,5.32
2017-12-13T07:56:21.446Z,5.72
2017-12-13T07:58:48.900Z,5.10
2017-12-13T08:01:16.337Z,6.05
2017-12-13T08:03:43.813Z,3.60
2017-12-13T08:06:11.252Z,5.97
2017-12-13T08:08:38.707Z,4.55
2017-12-13T08:11:06.157Z,6.60
2017-12-13T08:13:33.607Z,3.83
2017-12-13T08:16:01.049Z,8.02
2017-12-13T08:18:28.519Z,6.65
2017-12-13T08:20:55.959Z,6.32
2017-12-13T08:23:24.278Z,6.97
2017-12-13T08:25:53.142Z,4.43
2017-12-13T08:28:20.599Z,3.90
2017-12-13T08:30:48.037Z,4.20
2017-12-13T08:33:15.496Z,5.65
2017-12-13T08:35:42.938Z,4.97
2017-12-13T08:38:11.153Z,7.70
2017-12-13T08:40:38.601Z,6.68
2017-12-13T08:43:06.057Z,4.70
2017-12-13T08:45:33.496Z,7.65
2017-12-13T08:48:00.945Z,4.30
2017-12-13T08:50:29.163Z,4.60
2017-12-13T08:52:56.619Z,5.45
2017-12-13T08:55:24.074Z,5.60
2017-12-13T08:57:51.550Z,3.45
2017-12-13T09:00:19.000Z,5.07
2017-12-13T09:02:46.450Z,7.18
2017-12-13T09:05:13.901Z,6.95
2017-12-13T09:07:41.346Z,7.30
2017-12-13T09:10:08.809Z,5.43
2017-12-13T09:12:36.253Z,5.45
2017-12-13T09:15:03.710Z,3.53
2017-12-13T09:17:31.153Z,4.30
2017-12-13T09:19:58.665Z,8.70
2017-12-13T09:22:26.114Z,11.25
2017-12-13T09:24:53.561Z,5.43
2017-12-13T09:27:21.005Z,4.95
2017-12-13T09:29:48.552Z,5.55
2017-12-13T09:32:16.631Z,5.50
2017-12-13T09:34:44.117Z,3.87
2017-12-13T09:37:11.565Z,7.70
2017-12-13T09:39:39.127Z,5.20
2017-12-13T09:42:06.569Z,5.05
2017-12-13T09:44:34.027Z,10.88
2017-12-13T09:47:02.209Z,6.70
2017-12-13T09:49:29.664Z,5.95
2017-12-13T09:51:57.114Z,5.32
2017-12-13T09:54:24.573Z,6.75
2017-12-13T09:56:52.013Z,6.45
2017-12-13T09:59:19.471Z,17.48
2017-12-13T10:01:46.921Z,6.53
2017-12-13T10:04:14.379Z,6.07
2017-12-13T10:06:41.837Z,7.07
2017-12-13T10:09:09.287Z,10.02
2017-12-13T10:11:36.783Z,6.75
2017-12-13T10:14:04.229Z,5.90
2017-12-13T10:16:31.689Z,6.87
2017-12-13T10:18:59.158Z,8.32
2017-12-13T10:21:26.614Z,7.35
2017-12-13T10:23:54.065Z,11.80
2017-12-13T10:26:21.517Z,6.47
2017-12-13T10:28:48.961Z,8.90
2017-12-13T10:31:16.417Z,7.28
2017-12-13T10:33:43.888Z,11.70
2017-12-13T10:36:11.345Z,7.28
2017-12-13T10:38:38.806Z,5.45
2017-12-13T10:41:06.266Z,5.70
2017-12-13T10:43:33.710Z,4.00
2017-12-13T10:46:01.166Z,6.53
2017-12-13T10:48:28.605Z,7.03
2017-12-13T10:50:56.065Z,5.28
2017-12-13T10:53:23.513Z,6.18
2017-12-13T10:55:50.961Z,5.35
2017-12-13T10:58:18.465Z,5.65
2017-12-13T11:00:45.918Z,3.95
2017-12-13T11:03:13.366Z,4.35
2017-12-13T11:05:40.823Z,5.47
2017-12-13T11:08:08.266Z,5.03
2017-12-13T11:10:35.722Z,5.57
2017-12-13T11:13:03.165Z,4.78
2017-12-13T11:15:30.601Z,3.00
2017-12-13T11:17:58.118Z,4.97
2017-12-13T11:20:25.575Z,6.12
2017-12-13T11:22:53.017Z,4.47
2017-12-13T11:27:55.202Z,3.05
2017-12-13T11:30:22.645Z,2.65
2017-12-13T11:32:50.093Z,3.15
2017-12-13T11:35:17.537Z,5.35
2017-12-13T11:37:44.990Z,6.18
2017-12-13T11:40:12.429Z,9.57
2017-12-13T11:42:40.653Z,8.88
2017-12-13T11:45:08.098Z,5.95
2017-12-13T11:47:35.562Z,6.87
2017-12-13T11:50:03.045Z,5.43
2017-12-13T11:52:30.493Z,5.93
2017-12-13T11:54:58.727Z,6.90
2017-12-13T11:57:26.215Z,4.10
2017-12-13T11:59:53.622Z,5.22
2017-12-13T12:02:21.864Z,6.97
2017-12-13T12:04:49.305Z,4.28
2017-12-13T12:07:16.763Z,4.25
2017-12-13T12:09:44.214Z,8.05
2017-12-13T12:12:11.656Z,3.28
2017-12-13T12:14:39.108Z,3.45
2017-12-13T12:17:06.550Z,4.78
2017-12-13T12:19:34.054Z,3.00
2017-12-13T12:22:01.520Z,7.05
2017-12-13T12:24:28.953Z,4.93
2017-12-13T12:26:56.399Z,5.78
2017-12-13T12:29:23.851Z,8.40
2017-12-13T12:31:51.342Z,8.10
2017-12-13T12:34:18.801Z,6.03
2017-12-13T12:36:46.249Z,5.40
2017-12-13T12:39:13.823Z,5.97
2017-12-13T12:41:41.265Z,5.25
2017-12-13T12:44:08.718Z,3.75
2017-12-13T12:46:36.169Z,10.18
2017-12-13T12:49:03.630Z,5.50
2017-12-13T12:51:31.069Z,5.37
2017-12-13T12:53:58.516Z,5.90
2017-12-13T12:56:26.083Z,8.43
2017-12-13T12:58:53.537Z,6.78
2017-12-13T13:01:20.981Z,6.85
2017-12-13T13:03:48.438Z,5.55
2017-12-13T13:06:15.942Z,5.20
2017-12-13T13:08:43.389Z,4.25
2017-12-13T13:11:10.843Z,4.12
2017-12-13T13:13:38.309Z,4.22
2017-12-13T13:16:05.769Z,4.07
2017-12-13T13:18:33.215Z,7.90
2017-12-13T13:21:00.778Z,6.70
2017-12-13T13:23:28.255Z,5.97
2017-12-13T13:25:55.796Z,4.20
2017-12-13T13:28:23.237Z,6.18
2017-12-13T13:30:50.700Z,4.07
2017-12-13T13:33:18.145Z,2.97
2017-12-13T13:35:45.597Z,8.80
2017-12-13T13:38:13.038Z,4.55
2017-12-13T13:40:40.577Z,4.97
2017-12-13T13:43:08.819Z,4.85
2017-12-13T13:45:36.369Z,6.97
2017-12-13T13:48:03.852Z,3.95
2017-12-13T13:50:31.292Z,5.70
2017-12-13T13:52:58.737Z,5.45
2017-12-13T13:55:26.185Z,2.87
2017-12-13T13:57:53.635Z,4.22
2017-12-13T14:00:21.084Z,4.80
2017-12-13T14:02:48.528Z,5.87
2017-12-13T14:05:16.067Z,6.10
2017-12-13T14:07:44.273Z,6.03
2017-12-13T14:10:11.730Z,6.65
2017-12-13T14:12:39.218Z,6.30
2017-12-13T14:15:06.653Z,4.68
2017-12-13T14:17:34.176Z,5.20
2017-12-13T14:20:02.373Z,9.23
2017-12-13T14:22:29.834Z,7.18
2017-12-13T14:24:57.273Z,4.07
2017-12-13T14:27:24.764Z,5.15
2017-12-13T14:29:52.201Z,7.28
2017-12-13T14:32:19.697Z,6.18
2017-12-13T14:34:47.146Z,4.72
2017-12-13T14:37:14.608Z,4.30
2017-12-13T14:39:42.064Z,8.70
2017-12-13T14:42:09.504Z,9.00
2017-12-13T14:44:36.996Z,5.57
2017-12-13T14:47:04.442Z,9.05
2017-12-13T14:49:31.895Z,7.30
2017-12-13T14:51:59.342Z,5.85
2017-12-13T14:54:26.823Z,4.80
2017-12-13T14:56:55.026Z,5.70
2017-12-13T14:59:22.473Z,7.12
2017-12-13T15:01:50.681Z,5.37
2017-12-13T15:04:18.180Z,5.53
2017-12-13T15:06:45.613Z,6.45
2017-12-13T15:09:13.107Z,9.00
2017-12-13T15:11:40.580Z,6.55
2017-12-13T15:14:08.810Z,7.72
2017-12-13T15:16:36.296Z,5.90
2017-12-13T15:19:04.510Z,5.93
2017-12-13T15:21:31.990Z,5.80
2017-12-13T15:23:59.472Z,5.30
2017-12-13T15:26:26.944Z,6.87
2017-12-13T15:28:54.386Z,4.10
2017-12-13T15:31:21.839Z,4.53
2017-12-13T15:33:50.783Z,2.30
2017-12-13T15:36:18.242Z,4.15
2017-12-13T15:38:45.686Z,2.70
2017-12-13T15:41:13.180Z,4.22
2017-12-13T15:43:40.617Z,1.23
2017-12-13T15:46:08.110Z,1.20
2017-12-13T15:48:35.580Z,1.20
2017-12-13T15:51:03.117Z,1.00
2017-12-13T15:53:30.565Z,2.20
2017-12-13T15:55:58.012Z,1.50
2017-12-13T15:58:25.456Z,1.15
2017-12-13T16:00:52.916Z,1.70
2017-12-13T16:03:20.398Z,2.10
2017-12-13T16:05:47.846Z,4.60
2017-12-13T16:08:15.331Z,1.98
2017-12-13T16:10:42.765Z,2.12
2017-12-13T16:13:10.210Z,1.77
2017-12-13T16:15:37.699Z,1.20
2017-12-13T16:18:05.190Z,3.67
2017-12-13T16:20:33.436Z,1.30
2017-12-13T16:23:00.912Z,2.12
2017-12-13T16:25:29.112Z,1.45
2017-12-13T16:27:56.626Z,1.67
2017-12-13T16:30:24.103Z,2.10
2017-12-13T16:32:52.317Z,1.90
2017-12-13T16:35:19.796Z,1.40
2017-12-13T16:37:47.399Z,15.20
2017-12-13T16:40:15.684Z,2.25
2017-12-13T16:42:43.935Z,2.35
2017-12-13T16:45:11.369Z,2.35
2017-12-13T16:47:38.827Z,2.53
2017-12-13T16:50:06.311Z,3.67
2017-12-13T16:52:33.753Z,3.90
2017-12-13T16:55:01.201Z,2.20
2017-12-13T16:57:28.704Z,2.10
2017-12-13T16:59:56.949Z,2.10
2017-12-13T17:02:24.427Z,4.62
2017-12-13T17:04:52.699Z,3.25
2017-12-13T17:07:20.954Z,1.98
2017-12-13T17:09:48.440Z,4.93
2017-12-13T17:12:16.679Z,3.05
2017-12-13T17:14:44.162Z,2.85
2017-12-13T17:17:12.412Z,2.08
2017-12-13T17:19:39.896Z,2.35
2017-12-13T17:22:08.140Z,2.40
2017-12-13T17:24:35.581Z,2.58
2017-12-13T17:27:03.075Z,2.50
2017-12-13T17:29:30.601Z,4.50
2017-12-13T17:31:58.049Z,3.78
2017-12-13T17:34:25.496Z,3.45
2017-12-13T17:36:52.943Z,2.15
2017-12-13T17:39:20.431Z,3.33
2017-12-13T17:41:47.924Z,1.85
2017-12-13T17:44:15.414Z,2.45
2017-12-13T17:46:42.891Z,1.70
2017-12-13T17:49:10.338Z,2.03
2017-12-13T17:51:37.788Z,2.65
2017-12-13T17:54:05.311Z,3.67
2017-12-13T17:56:32.784Z,2.85
2017-12-13T17:59:01.042Z,1.67
2017-12-13T18:01:29.301Z,1.75
2017-12-13T18:03:56.786Z,2.78
2017-12-13T18:06:25.032Z,7.25
2017-12-13T18:08:52.514Z,4.30
2017-12-13T18:11:20.801Z,3.30
2017-12-13T18:13:49.054Z,2.10
2017-12-13T18:16:16.486Z,1.77
2017-12-13T18:18:43.935Z,2.58
2017-12-13T18:21:11.436Z,1.30
2017-12-13T18:23:39.680Z,6.87
2017-12-13T18:26:07.184Z,2.65
2017-12-13T18:28:35.419Z,3.40
2017-12-13T18:31:02.865Z,2.05
2017-12-13T18:33:30.329Z,1.42
2017-12-13T18:35:57.768Z,1.50
2017-12-13T18:38:25.215Z,2.33
2017-12-13T18:40:52.667Z,3.70
2017-12-13T18:43:20.156Z,1.30
2017-12-13T18:45:47.653Z,1.20
2017-12-13T18:48:15.887Z,2.62
2017-12-13T18:50:43.377Z,2.50
2017-12-13T18:53:11.654Z,2.53
2017-12-13T18:55:39.096Z,3.42
2017-12-13T18:58:06.571Z,3.42
2017-12-13T19:00:34.828Z,1.58
2017-12-13T19:03:02.305Z,2.40
2017-12-13T19:05:30.558Z,1.70
2017-12-13T19:07:58.036Z,1.83
2017-12-13T19:10:26.298Z,2.03
2017-12-13T19:12:54.271Z,1.70
2017-12-13T19:15:22.512Z,1.30
2017-12-13T19:17:50.005Z,2.60
2017-12-13T19:20:18.253Z,1.90
2017-12-13T19:22:45.744Z,1.52
2017-12-13T19:25:14.033Z,2.28
2017-12-13T19:27:41.484Z,2.17
2017-12-13T19:30:08.981Z,7.12
2017-12-13T19:32:36.470Z,1.30
2017-12-13T19:35:03.939Z,1.40
2017-12-13T19:37:32.200Z,1.42
2017-12-13T19:40:00.496Z,1.65
2017-12-13T19:42:28.714Z,3.72
2017-12-13T19:44:56.199Z,3.85
2017-12-13T19:47:23.880Z,4.55
2017-12-13T19:49:51.315Z,3.75
2017-12-13T19:52:18.807Z,5.82
2017-12-13T19:54:47.079Z,3.97
2017-12-13T19:57:15.289Z,3.60
2017-12-13T19:59:42.797Z,4.75
2017-12-13T20:02:10.235Z,2.62
2017-12-13T20:04:38.491Z,2.35
2017-12-13T20:07:06.087Z,4.72
2017-12-13T20:09:33.532Z,4.05
2017-12-13T20:12:01.017Z,3.40
2017-12-13T20:14:29.267Z,3.00
2017-12-13T20:16:56.753Z,3.80
2017-12-13T20:19:25.018Z,3.62
2017-12-13T20:21:52.494Z,2.58
2017-12-13T20:24:20.749Z,2.85
2017-12-13T20:26:48.228Z,3.65
2017-12-13T20:29:15.728Z,4.57
2017-12-13T20:31:44.057Z,5.40
2017-12-13T20:34:12.321Z,3.00
2017-12-13T20:36:40.561Z,2.90
2017-12-13T20:39:07.997Z,19.05
2017-12-13T20:41:35.502Z,12.20
2017-12-13T20:44:03.757Z,3.22
2017-12-13T20:46:31.369Z,22.30
2017-12-13T20:48:58.884Z,13.35
2017-12-13T20:51:27.270Z,5.18
2017-12-13T20:53:54.756Z,4.30
2017-12-13T20:56:22.961Z,4.05
2017-12-13T20:58:50.535Z,3.00
2017-12-13T21:01:18.023Z,4.80
2017-12-13T21:03:46.306Z,2.50
2017-12-13T21:06:13.877Z,2.67
2017-12-13T21:08:42.132Z,2.80
2017-12-13T21:11:09.571Z,3.20
2017-12-13T21:13:37.021Z,3.00
2017-12-13T21:16:04.534Z,2.62
2017-12-13T21:18:32.741Z,1.90
2017-12-13T21:21:00.240Z,2.67
2017-12-13T21:23:27.674Z,2.90
2017-12-13T21:25:55.181Z,2.40
2017-12-13T21:28:22.652Z,2.87
2017-12-13T21:30:50.182Z,3.70
2017-12-13T21:33:18.461Z,2.60
2017-12-13T21:35:46.684Z,2.37
2017-12-13T21:38:14.173Z,4.10
2017-12-13T21:40:41.657Z,2.65
2017-12-13T21:43:09.912Z,2.78
2017-12-13T21:45:37.400Z,3.40
2017-12-13T21:48:04.970Z,2.62
2017-12-13T21:50:32.443Z,2.67
2017-12-13T21:52:59.928Z,2.85
2017-12-13T21:55:27.361Z,3.10
2017-12-13T21:57:54.813Z,3.30
2017-12-13T22:02:36.930Z,2.70
2017-12-13T22:05:04.421Z,3.17
2017-12-13T22:07:31.995Z,2.80
2017-12-13T22:10:00.247Z,3.10
2017-12-13T22:12:27.789Z,2.97
2017-12-13T22:14:55.276Z,2.97
2017-12-13T22:17:22.846Z,2.72
2017-12-13T22:19:51.095Z,3.03
2017-12-13T22:22:18.602Z,2.97
2017-12-13T22:24:46.075Z,2.53
2017-12-13T22:27:13.628Z,3.87
2017-12-13T22:29:41.056Z,4.43
2017-12-13T22:32:08.555Z,2.42
2017-12-13T22:34:36.035Z,2.78
2017-12-13T22:37:03.474Z,2.42
2017-12-13T22:39:30.960Z,2.03
2017-12-13T22:41:58.544Z,1.85
2017-12-13T22:44:26.850Z,3.37
2017-12-13T22:46:54.340Z,2.15
2017-12-13T22:49:21.820Z,3.25
2017-12-13T22:51:49.295Z,1.90
2017-12-13T22:54:17.535Z,1.70
2017-12-13T22:56:45.114Z,1.83
2017-12-13T22:59:12.595Z,2.70
2017-12-13T23:01:40.832Z,1.30
2017-12-13T23:04:08.318Z,1.25
2017-12-13T23:06:36.513Z,1.30
2017-12-13T23:09:04.004Z,1.25
2017-12-13T23:11:31.495Z,1.80
2017-12-13T23:13:59.776Z,1.00
2017-12-13T23:16:28.042Z,0.98
2017-12-13T23:18:55.480Z,1.08
2017-12-13T23:21:22.917Z,1.20
2017-12-13T23:23:50.484Z,2.45
2017-12-13T23:26:17.920Z,1.20
2017-12-13T23:28:45.377Z,1.00
2017-12-13T23:31:12.822Z,0.90
2017-12-13T23:33:40.272Z,1.00
2017-12-13T23:36:07.730Z,0.80
2017-12-13T23:38:35.295Z,1.00
2017-12-13T23:41:02.729Z,0.80
2017-12-13T23:43:30.246Z,1.00
2017-12-13T23:45:57.694Z,1.00
2017-12-13T23:48:25.158Z,0.88
2017-12-13T23:50:52.601Z,1.00
2017-12-13T23:53:20.055Z,2.37
2017-12-13T23:55:47.510Z,1.15
2017-12-13T23:58:14.954Z,1.10
